createdAt,value
2019-02-22T00:01:07.646Z,32.13
2019-02-22T00:04:12.966Z,29.83
2019-02-22T00:07:18.132Z,30.60
2019-02-22T00:10:23.488Z,32.83
2019-02-22T00:13:28.694Z,32.60
2019-02-22T00:16:33.835Z,34.27
2019-02-22T00:19:38.996Z,31.97
2019-02-22T00:22:44.086Z,27.03
2019-02-22T00:25:49.229Z,27.50
2019-02-22T00:28:54.396Z,25.07
2019-02-22T00:31:59.638Z,22.73
2019-02-22T00:35:04.957Z,24.70
2019-02-22T00:38:10.186Z,26.27
2019-02-22T00:41:16.268Z,26.47
2019-02-22T00:44:22.876Z,25.70
2019-02-22T00:47:28.069Z,26.03
2019-02-22T00:50:33.212Z,26.57
2019-02-22T00:53:38.497Z,28.53
2019-02-22T00:56:43.609Z,28.70
2019-02-22T00:59:48.756Z,29.60
2019-02-22T01:02:53.879Z,31.00
2019-02-22T01:05:59.045Z,31.67
2019-02-22T01:09:04.895Z,32.10
2019-02-22T01:12:11.637Z,30.33
2019-02-22T01:15:16.792Z,29.87
2019-02-22T01:18:21.986Z,30.77
2019-02-22T01:21:27.271Z,29.77
2019-02-22T01:24:32.479Z,28.93
2019-02-22T01:27:38.676Z,28.60
2019-02-22T01:30:43.843Z,30.07
2019-02-22T01:33:50.118Z,30.23
2019-02-22T01:36:55.190Z,26.67
2019-02-22T01:40:00.397Z,30.40
2019-02-22T01:43:05.553Z,29.03
2019-02-22T01:46:10.706Z,28.63
2019-02-22T01:49:15.872Z,28.73
2019-02-22T01:52:21.013Z,28.43
2019-02-22T01:55:26.212Z,28.17
2019-02-22T01:58:31.457Z,28.30
2019-02-22T02:01:36.610Z,30.57
2019-02-22T02:04:41.953Z,29.00
2019-02-22T02:07:47.124Z,29.43
2019-02-22T02:10:54.478Z,29.13
2019-02-22T02:14:00.805Z,29.10
2019-02-22T02:17:06.073Z,29.53
2019-02-22T02:20:11.666Z,30.70
2019-02-22T02:23:16.808Z,29.47
2019-02-22T02:26:21.920Z,28.70
2019-02-22T02:29:27.043Z,29.77
2019-02-22T02:32:32.206Z,29.03
2019-02-22T02:35:37.374Z,26.90
2019-02-22T02:38:42.594Z,30.40
2019-02-22T02:41:47.814Z,28.17
2019-02-22T02:44:53.035Z,27.17
2019-02-22T02:47:58.263Z,27.73
2019-02-22T02:51:03.445Z,27.33
2019-02-22T02:54:08.621Z,28.37
2019-02-22T02:57:13.712Z,27.37
2019-02-22T03:00:18.907Z,28.83
2019-02-22T03:03:24.071Z,28.13
2019-02-22T03:06:43.713Z,27.90
2019-02-22T03:09:48.917Z,27.70
2019-02-22T03:12:55.124Z,27.40
2019-02-22T03:16:00.183Z,27.07
2019-02-22T03:19:05.293Z,25.63
2019-02-22T03:22:10.504Z,26.47
2019-02-22T03:25:15.681Z,27.37
2019-02-22T03:28:21.767Z,29.20
2019-02-22T03:31:26.978Z,26.83
2019-02-22T03:34:32.126Z,28.60
2019-02-22T03:37:37.267Z,29.83
2019-02-22T03:40:42.412Z,29.83
2019-02-22T03:43:48.611Z,29.53
2019-02-22T03:46:53.772Z,28.80
2019-02-22T03:49:58.907Z,28.23
2019-02-22T03:53:22.992Z,28.70
2019-02-22T03:56:28.110Z,28.47
2019-02-22T03:59:33.352Z,28.53
2019-02-22T04:02:38.529Z,27.70
2019-02-22T04:05:43.639Z,28.10
2019-02-22T04:08:48.802Z,26.93
2019-02-22T04:11:53.891Z,28.17
2019-02-22T04:14:59.135Z,28.50
2019-02-22T04:18:04.273Z,27.97
2019-02-22T04:21:09.512Z,28.57
2019-02-22T04:24:14.662Z,26.77
2019-02-22T04:27:19.960Z,27.13
2019-02-22T04:30:25.109Z,26.33
2019-02-22T04:33:30.317Z,27.57
2019-02-22T04:36:35.575Z,25.63
2019-02-22T04:39:40.792Z,25.87
2019-02-22T04:42:45.893Z,25.97
2019-02-22T04:45:51.014Z,26.20
2019-02-22T04:48:56.221Z,25.17
2019-02-22T04:52:01.341Z,24.20
2019-02-22T04:55:06.600Z,24.97
2019-02-22T04:58:11.713Z,25.63
2019-02-22T05:01:16.917Z,23.93
2019-02-22T05:04:22.121Z,25.07
2019-02-22T05:07:27.313Z,23.17
2019-02-22T05:10:32.431Z,22.90
2019-02-22T05:13:37.629Z,22.53
2019-02-22T05:16:42.817Z,22.17
2019-02-22T05:19:47.954Z,20.73
2019-02-22T05:23:03.446Z,23.53
2019-02-22T05:25:59.927Z,20.73
2019-02-22T05:29:05.076Z,21.07
2019-02-22T05:32:10.302Z,23.80
2019-02-22T05:35:15.491Z,23.17
2019-02-22T05:38:20.600Z,21.77
2019-02-22T05:41:25.742Z,22.10
2019-02-22T05:44:30.986Z,21.20
2019-02-22T05:47:36.124Z,22.00
2019-02-22T05:50:41.417Z,24.03
2019-02-22T05:53:46.556Z,23.17
2019-02-22T05:56:54.696Z,20.97
2019-02-22T05:59:58.608Z,25.37
2019-02-22T06:03:03.710Z,24.67
2019-02-22T06:06:08.844Z,23.97
2019-02-22T06:09:14.088Z,26.03
2019-02-22T06:12:19.239Z,23.87
2019-02-22T06:15:24.543Z,22.07
2019-02-22T06:18:29.655Z,21.57
2019-02-22T06:21:34.894Z,20.13
2019-02-22T06:24:40.003Z,18.93
2019-02-22T06:27:46.193Z,18.43
2019-02-22T06:30:51.374Z,15.40
2019-02-22T06:33:56.687Z,15.23
2019-02-22T06:37:02.471Z,13.40
2019-02-22T06:40:08.793Z,13.57
2019-02-22T06:43:14.010Z,14.57
2019-02-22T06:46:19.294Z,13.40
2019-02-22T06:49:24.568Z,13.53
2019-02-22T06:52:29.910Z,13.13
2019-02-22T06:55:35.067Z,12.67
2019-02-22T06:58:40.346Z,13.23
2019-02-22T07:01:45.534Z,12.53
2019-02-22T07:04:50.686Z,11.50
2019-02-22T07:07:56.898Z,11.93
2019-02-22T07:11:24.955Z,11.33
2019-02-22T07:14:30.114Z,11.93
2019-02-22T07:17:35.226Z,12.87
2019-02-22T07:20:40.366Z,12.13
2019-02-22T07:23:45.622Z,16.73
2019-02-22T07:26:50.806Z,13.47
2019-02-22T07:29:56.034Z,17.53
2019-02-22T07:33:01.192Z,15.03
2019-02-22T07:36:06.417Z,12.73
2019-02-22T07:39:11.618Z,16.27
2019-02-22T07:42:16.840Z,15.07
2019-02-22T07:45:21.990Z,17.57
2019-02-22T07:48:27.174Z,16.47
2019-02-22T07:51:32.330Z,17.93
2019-02-22T07:54:37.548Z,16.03
2019-02-22T07:57:42.696Z,16.00
2019-02-22T08:00:48.021Z,15.97
2019-02-22T08:03:54.232Z,16.50
2019-02-22T08:06:59.473Z,18.13
2019-02-22T08:10:05.155Z,18.20
2019-02-22T08:13:19.257Z,15.27
2019-02-22T08:16:17.193Z,16.73
2019-02-22T08:19:22.411Z,15.90
2019-02-22T08:22:27.578Z,13.50
2019-02-22T08:25:32.831Z,11.43
2019-02-22T08:28:38.060Z,13.63
2019-02-22T08:31:43.242Z,10.37
2019-02-22T08:34:48.365Z,8.90
2019-02-22T08:37:53.569Z,8.77
2019-02-22T08:40:58.706Z,7.23
2019-02-22T08:44:03.869Z,7.63
2019-02-22T08:47:09.077Z,7.10
2019-02-22T08:50:14.578Z,7.70
2019-02-22T08:53:19.922Z,7.80
2019-02-22T08:56:25.108Z,6.03
2019-02-22T08:59:30.513Z,5.73
2019-02-22T09:02:35.682Z,6.13
2019-02-22T09:05:40.885Z,6.40
2019-02-22T09:08:46.310Z,5.87
2019-02-22T09:11:51.472Z,6.70
2019-02-22T09:14:56.771Z,4.00
2019-02-22T09:18:01.890Z,4.20
2019-02-22T09:21:07.137Z,3.77
2019-02-22T09:24:12.289Z,3.13
2019-02-22T09:27:17.348Z,3.00
2019-02-22T09:30:22.519Z,2.83
2019-02-22T09:33:27.681Z,2.60
2019-02-22T09:36:32.912Z,2.87
2019-02-22T09:39:38.323Z,3.53
2019-02-22T09:42:43.514Z,2.87
2019-02-22T09:45:48.729Z,3.10
2019-02-22T09:48:53.851Z,2.87
2019-02-22T09:51:58.948Z,3.40
2019-02-22T09:55:04.170Z,3.03
2019-02-22T09:58:11.129Z,3.40
2019-02-22T10:01:16.295Z,3.10
2019-02-22T10:04:21.459Z,2.67
2019-02-22T10:07:26.618Z,3.00
2019-02-22T10:10:31.767Z,3.17
2019-02-22T10:13:37.027Z,3.73
2019-02-22T10:16:42.275Z,3.70
2019-02-22T10:19:47.446Z,3.30
2019-02-22T10:22:52.638Z,3.60
2019-02-22T10:25:57.780Z,3.50
2019-02-22T10:29:03.012Z,4.00
2019-02-22T10:32:08.180Z,4.23
2019-02-22T10:35:13.459Z,3.80
2019-02-22T10:38:18.780Z,3.90
2019-02-22T10:41:23.892Z,4.07
2019-02-22T10:44:29.037Z,3.27
2019-02-22T10:47:34.138Z,4.53
2019-02-22T10:50:39.347Z,4.50
2019-02-22T10:53:44.439Z,4.67
2019-02-22T10:56:49.632Z,4.90
2019-02-22T10:59:54.734Z,4.23
2019-02-22T11:02:59.922Z,4.90
2019-02-22T11:06:05.243Z,5.13
2019-02-22T11:09:10.452Z,4.97
2019-02-22T11:12:15.778Z,4.67
2019-02-22T11:15:20.929Z,4.87
2019-02-22T11:18:26.036Z,4.77
2019-02-22T11:21:31.216Z,5.47
2019-02-22T11:24:36.365Z,5.17
2019-02-22T11:27:41.516Z,5.27
2019-02-22T11:30:47.074Z,5.23
2019-02-22T11:33:52.373Z,5.27
2019-02-22T11:36:57.593Z,4.40
2019-02-22T11:40:02.757Z,5.40
2019-02-22T11:43:07.958Z,5.07
2019-02-22T11:46:14.107Z,5.43
2019-02-22T11:49:19.260Z,4.97
2019-02-22T11:52:24.369Z,5.10
2019-02-22T11:55:29.587Z,5.80
2019-02-22T11:58:34.810Z,5.10
2019-02-22T12:01:40.004Z,4.90
2019-02-22T12:04:45.306Z,4.87
2019-02-22T12:07:50.522Z,5.07
2019-02-22T12:10:55.794Z,5.30
2019-02-22T12:14:00.996Z,4.60
2019-02-22T12:17:06.275Z,5.00
2019-02-22T12:20:11.720Z,5.17
2019-02-22T12:23:16.938Z,4.47
2019-02-22T12:26:22.111Z,3.87
2019-02-22T12:29:27.328Z,4.27
2019-02-22T12:32:32.507Z,4.43
2019-02-22T12:35:37.668Z,4.83
2019-02-22T12:38:42.899Z,4.20
2019-02-22T12:41:48.113Z,5.23
2019-02-22T12:45:02.508Z,4.60
2019-02-22T12:48:00.342Z,4.43
2019-02-22T12:51:05.511Z,4.23
2019-02-22T12:54:10.744Z,4.83
2019-02-22T12:57:15.891Z,4.70
2019-02-22T13:00:21.052Z,4.37
2019-02-22T13:03:26.547Z,4.23
2019-02-22T13:06:31.700Z,4.27
2019-02-22T13:09:37.224Z,3.70
2019-02-22T13:12:42.615Z,3.70
2019-02-22T13:15:47.967Z,3.43
2019-02-22T13:18:53.170Z,3.20
2019-02-22T13:21:58.428Z,2.93
2019-02-22T13:25:03.724Z,3.20
2019-02-22T13:28:08.887Z,3.20
2019-02-22T13:31:14.066Z,3.20
2019-02-22T13:34:19.273Z,3.43
2019-02-22T13:37:25.504Z,3.00
2019-02-22T13:40:31.753Z,3.17
2019-02-22T13:43:36.973Z,3.37
2019-02-22T13:46:42.140Z,2.80
2019-02-22T13:49:47.598Z,3.00
2019-02-22T13:52:52.731Z,2.73
2019-02-22T13:55:57.926Z,2.87
2019-02-22T13:59:03.083Z,2.90
2019-02-22T14:02:08.211Z,2.90
2019-02-22T14:05:13.468Z,2.63
2019-02-22T14:08:18.738Z,2.83
2019-02-22T14:11:23.896Z,3.30
2019-02-22T14:14:29.064Z,3.57
2019-02-22T14:17:34.239Z,2.63
2019-02-22T14:20:39.429Z,2.37
2019-02-22T14:23:44.574Z,2.83
2019-02-22T14:26:49.774Z,2.80
2019-02-22T14:29:54.894Z,2.77
2019-02-22T14:33:00.141Z,3.13
2019-02-22T14:36:05.281Z,3.70
2019-02-22T14:39:10.733Z,3.43
2019-02-22T14:42:16.071Z,3.27
2019-02-22T14:45:21.300Z,3.90
2019-02-22T14:48:26.523Z,3.23
2019-02-22T14:51:31.729Z,3.10
2019-02-22T14:54:36.949Z,2.80
2019-02-22T14:57:44.939Z,3.00
2019-02-22T15:00:49.193Z,3.47
2019-02-22T15:06:49.710Z,3.13
2019-02-22T15:09:54.824Z,2.63
2019-02-22T15:13:00.095Z,3.47
2019-02-22T15:16:29.526Z,6.53
2019-02-22T15:19:34.644Z,3.03
2019-02-22T15:22:39.782Z,3.40
2019-02-22T15:25:44.929Z,3.60
2019-02-22T15:28:50.093Z,4.47
2019-02-22T15:31:55.306Z,3.57
2019-02-22T15:35:00.492Z,3.93
2019-02-22T15:38:06.935Z,3.27
2019-02-22T15:41:12.251Z,3.43
2019-02-22T15:44:17.518Z,4.03
2019-02-22T15:47:22.671Z,3.60
2019-02-22T15:50:27.833Z,3.40
2019-02-22T15:53:33.079Z,4.77
2019-02-22T15:56:38.280Z,54.63
2019-02-22T15:59:43.514Z,7.20
2019-02-22T16:02:48.675Z,9.83
2019-02-22T16:05:53.833Z,7.87
2019-02-22T16:08:58.976Z,3.87
2019-02-22T16:12:04.048Z,4.83
2019-02-22T16:15:09.537Z,4.50
2019-02-22T16:18:14.876Z,3.37
2019-02-22T16:21:19.995Z,3.37
2019-02-22T16:24:25.129Z,3.10
2019-02-22T16:27:30.337Z,4.07
2019-02-22T16:30:37.146Z,3.63
2019-02-22T16:33:42.337Z,4.53
2019-02-22T16:36:47.489Z,3.13
2019-02-22T16:39:52.635Z,6.13
2019-02-22T16:42:57.766Z,3.90
2019-02-22T16:46:03.000Z,4.07
2019-02-22T16:49:08.098Z,3.03
2019-02-22T16:52:13.249Z,3.90
2019-02-22T16:55:18.440Z,3.97
2019-02-22T16:58:23.670Z,3.97
2019-02-22T17:01:28.978Z,25.23
2019-02-22T17:04:35.098Z,3.90
2019-02-22T17:07:40.281Z,4.20
2019-02-22T17:10:45.488Z,6.50
2019-02-22T17:13:50.781Z,4.43
2019-02-22T17:16:56.014Z,5.23
2019-02-22T17:20:01.227Z,21.67
2019-02-22T17:23:06.799Z,7.70
2019-02-22T17:26:15.232Z,14.60
2019-02-22T17:29:20.346Z,5.47
2019-02-22T17:32:26.603Z,4.13
2019-02-22T17:35:31.756Z,13.90
2019-02-22T17:38:37.009Z,14.60
2019-02-22T17:41:42.937Z,10.77
2019-02-22T17:44:48.185Z,7.67
2019-02-22T17:47:53.342Z,3.50
2019-02-22T17:50:59.634Z,4.73
2019-02-22T17:54:05.006Z,6.10
2019-02-22T17:57:10.321Z,4.87
2019-02-22T18:00:17.564Z,3.70
2019-02-22T18:03:22.805Z,3.10
2019-02-22T18:06:27.953Z,3.73
2019-02-22T18:09:33.181Z,2.80
2019-02-22T18:12:38.289Z,2.70
2019-02-22T18:15:43.535Z,2.33
2019-02-22T18:18:48.812Z,5.60
2019-02-22T18:21:54.033Z,5.77
2019-02-22T18:24:59.176Z,4.80
2019-02-22T18:28:04.331Z,2.67
2019-02-22T18:31:09.477Z,1.83
2019-02-22T18:34:14.650Z,22.80
2019-02-22T18:37:19.885Z,2.20
2019-02-22T18:40:24.975Z,1.90
2019-02-22T18:43:30.137Z,2.40
2019-02-22T18:46:35.347Z,6.43
2019-02-22T18:49:40.446Z,5.17
2019-02-22T18:52:45.592Z,2.93
2019-02-22T18:55:50.727Z,3.43
2019-02-22T18:58:56.355Z,2.60
2019-02-22T19:02:01.574Z,2.13
2019-02-22T19:05:08.607Z,2.47
2019-02-22T19:08:13.756Z,2.20
2019-02-22T19:11:19.002Z,1.80
2019-02-22T19:14:24.143Z,1.80
2019-02-22T19:17:30.618Z,1.87
2019-02-22T19:20:35.877Z,2.30
2019-02-22T19:23:41.019Z,2.00
2019-02-22T19:26:46.190Z,2.37
2019-02-22T19:29:51.365Z,1.87
2019-02-22T19:32:56.506Z,2.60
2019-02-22T19:36:01.714Z,2.47
2019-02-22T19:39:07.376Z,3.10
2019-02-22T19:42:13.128Z,3.23
2019-02-22T19:45:18.315Z,3.33
2019-02-22T19:48:23.510Z,5.00
2019-02-22T19:51:28.659Z,3.07
2019-02-22T19:54:33.759Z,3.80
2019-02-22T19:57:38.908Z,3.40
2019-02-22T20:00:44.146Z,4.07
2019-02-22T20:03:49.349Z,4.70
2019-02-22T20:06:54.592Z,5.13
2019-02-22T20:10:00.790Z,5.80
2019-02-22T20:13:07.050Z,7.30
2019-02-22T20:16:12.235Z,6.80
2019-02-22T20:19:17.465Z,6.20
2019-02-22T20:22:22.800Z,8.13
2019-02-22T20:25:27.969Z,6.77
2019-02-22T20:28:35.105Z,21.00
2019-02-22T20:31:40.070Z,14.43
2019-02-22T20:34:45.215Z,15.03
2019-02-22T20:37:53.031Z,9.10
2019-02-22T20:40:57.517Z,9.23
2019-02-22T20:44:02.783Z,12.77
2019-02-22T20:47:08.031Z,7.93
2019-02-22T20:50:13.276Z,8.53
2019-02-22T20:53:18.476Z,8.17
2019-02-22T20:56:24.023Z,8.30
2019-02-22T20:59:29.303Z,8.73
2019-02-22T21:02:34.480Z,7.77
2019-02-22T21:05:39.739Z,9.13
2019-02-22T21:08:44.935Z,7.93
2019-02-22T21:11:50.084Z,8.43
2019-02-22T21:14:55.253Z,7.80
2019-02-22T21:18:00.384Z,8.67
2019-02-22T21:21:05.488Z,8.80
2019-02-22T21:24:10.635Z,7.27
2019-02-22T21:27:15.804Z,12.33
2019-02-22T21:30:21.064Z,8.70
2019-02-22T21:33:26.234Z,15.13
2019-02-22T21:36:31.362Z,9.00
2019-02-22T21:39:36.568Z,10.33
2019-02-22T21:42:41.763Z,11.27
2019-02-22T21:45:46.941Z,13.07
2019-02-22T21:48:52.125Z,10.37
2019-02-22T21:51:57.362Z,12.80
2019-02-22T21:55:02.536Z,11.37
2019-02-22T21:58:09.009Z,10.63
2019-02-22T22:01:14.135Z,10.67
2019-02-22T22:04:19.408Z,10.53
2019-02-22T22:07:24.556Z,10.30
2019-02-22T22:10:29.786Z,10.67
2019-02-22T22:13:34.907Z,10.83
2019-02-22T22:16:40.125Z,10.37
2019-02-22T22:19:45.432Z,9.70
2019-02-22T22:22:50.587Z,9.87
2019-02-22T22:25:55.738Z,11.23
2019-02-22T22:29:00.899Z,10.50
2019-02-22T22:32:06.041Z,8.80
2019-02-22T22:35:11.414Z,8.67
2019-02-22T22:38:16.633Z,9.60
2019-02-22T22:41:21.840Z,9.27
2019-02-22T22:44:27.054Z,8.20
2019-02-22T22:47:32.243Z,9.07
2019-02-22T22:50:37.371Z,9.00
2019-02-22T22:53:42.648Z,8.50
2019-02-22T22:56:47.860Z,9.30
2019-02-22T22:59:52.991Z,8.73
2019-02-22T23:02:58.228Z,8.03
2019-02-22T23:06:03.429Z,8.97
2019-02-22T23:09:18.738Z,8.77
2019-02-22T23:12:24.175Z,8.33
2019-02-22T23:15:29.385Z,9.23
2019-02-22T23:18:36.027Z,8.93
2019-02-22T23:21:41.317Z,8.93
2019-02-22T23:24:46.531Z,9.33
2019-02-22T23:27:51.747Z,9.60
2019-02-22T23:30:57.077Z,10.60
2019-02-22T23:34:02.285Z,10.20
2019-02-22T23:37:07.421Z,10.37
2019-02-22T23:40:12.572Z,9.63
2019-02-22T23:43:17.720Z,11.47
2019-02-22T23:46:22.939Z,10.53
2019-02-22T23:49:28.083Z,11.40
2019-02-22T23:52:33.936Z,10.40
2019-02-22T23:55:39.170Z,11.37
2019-02-22T23:58:45.429Z,10.47
